Prairie Rose, North Dakota
Current Conditions -  °F | °C
As of 10:53 PM on Thursday 30 Oct 2014 (Local Time) from KFAR Reporting Station
Clear Clear  
Wind Chill: 17°   Ceiling: Unl
Heat Index: 28°   Visibility: 10mi
Dew Point: 19°   Wind: 14mph
Humidity: 69%   Direction: 360°N
Pressure: 30.54"   Gusts: NA
Location:  46.8079°N, 96.8643°W
Report Text: KFAR 310353Z 36012KT 10SM CLR M02/M07 A3054 RMK AO2 SLP356 T10221072
Loading
Personal Weather Stations






























Interactive Weather Map New forecast layout! Learn more

10-Day Weather Forecast

Advertisements
Track Severe Weather on mobile